Time;durP1;ratioP1;P1;durP2;ratioP2;P2;SDS_P1;SDS_P2;PMS_P1;PMS_P2;Temp;Humidity;BMP_temperature;BMP_pressure;BME280_temperature;BME280_humidity;BME280_pressure;Samples;Min_cycle;Max_cycle;Signal;HPM_P1;HPM_P2
2022/01/07 00:02:02;;;;;;;4.55;2.40;;;;;;;;;;5019689;28;20572;-70
2022/01/07 00:04:31;;;;;;;6.55;3.20;;;;;;;;;;5016939;28;20340;-70
2022/01/07 00:06:57;;;;;;;4.50;2.72;;;;;;;;;;5036427;28;20134;-71
2022/01/07 00:09:23;;;;;;;4.95;2.63;;;;;;;;;;5017311;28;20063;-69
2022/01/07 00:11:50;;;;;;;5.68;2.70;;;;;;;;;;5038141;28;20064;-71
2022/01/07 00:14:17;;;;;;;7.18;2.78;;;;;;;;;;5023636;28;20053;-72
2022/01/07 00:16:43;;;;;;;4.60;2.70;;;;;;;;;;5040046;28;20040;-70
2022/01/07 00:19:09;;;;;;;4.32;2.55;;;;;;;;;;5038041;28;20121;-70
2022/01/07 00:21:36;;;;;;;3.63;2.40;;;;;;;;;;5022696;28;20430;-70
2022/01/07 00:24:01;;;;;;;7.35;2.47;;;;;;;;;;5022610;28;20049;-70
2022/01/07 00:26:28;;;;;;;6.10;2.80;;;;;;;;;;5041237;28;20055;-70
2022/01/07 00:28:54;;;;;;;5.65;2.90;;;;;;;;;;5040497;28;20487;-72
2022/01/07 00:31:21;;;;;;;6.32;2.78;;;;;;;;;;5038958;28;20052;-70
2022/01/07 00:33:47;;;;;;;7.65;2.60;;;;;;;;;;5038228;28;20140;-71
2022/01/07 00:36:13;;;;;;;8.10;3.10;;;;;;;;;;5020513;28;20133;-70
2022/01/07 00:38:41;;;;;;;4.95;2.50;;;;;;;;;;5039006;28;20048;-70
2022/01/07 00:41:08;;;;;;;9.63;3.00;;;;;;;;;;5023393;28;20110;-70
2022/01/07 00:43:34;;;;;;;3.70;2.28;;;;;;;;;;5003494;28;20724;-70
2022/01/07 00:46:01;;;;;;;4.18;2.50;;;;;;;;;;5019932;28;20045;-70
2022/01/07 00:48:27;;;;;;;3.97;2.00;;;;;;;;;;5019179;28;20437;-70
2022/01/07 00:50:54;;;;;;;3.33;2.13;;;;;;;;;;5038116;28;20056;-70
2022/01/07 00:53:20;;;;;;;5.13;2.10;;;;;;;;;;5035037;28;20048;-69
2022/01/07 00:55:47;;;;;;;9.10;2.50;;;;;;;;;;5037164;28;20103;-70
2022/01/07 00:58:13;;;;;;;5.50;2.00;;;;;;;;;;5038616;28;20045;-71
2022/01/07 01:00:40;;;;;;;9.40;2.25;;;;;;;;;;5039798;28;20656;-72
2022/01/07 01:03:06;;;;;;;4.88;2.13;;;;;;;;;;5039297;28;20868;-70
2022/01/07 01:05:33;;;;;;;3.97;2.05;;;;;;;;;;5017793;28;20162;-70
2022/01/07 01:07:59;;;;;;;3.13;1.77;;;;;;;;;;5035052;28;20045;-70
2022/01/07 01:10:26;;;;;;;3.55;1.88;;;;;;;;;;5035536;28;20041;-70
2022/01/07 01:12:53;;;;;;;4.07;2.00;;;;;;;;;;5023575;28;20468;-70
2022/01/07 01:15:22;;;;;;;8.70;2.40;;;;;;;;;;5039688;28;20132;-68
2022/01/07 01:17:51;;;;;;;4.85;2.10;;;;;;;;;;5043251;28;20083;-71
2022/01/07 01:20:18;;;;;;;5.22;2.13;;;;;;;;;;5044674;28;20057;-70
2022/01/07 01:22:44;;;;;;;5.25;2.00;;;;;;;;;;5044830;28;20044;-70
2022/01/07 01:25:12;;;;;;;4.38;2.40;;;;;;;;;;5046342;28;20056;-69
2022/01/07 01:27:40;;;;;;;6.80;2.25;;;;;;;;;;5043957;28;20389;-70
2022/01/07 01:30:09;;;;;;;4.45;2.28;;;;;;;;;;5043707;28;20049;-70
2022/01/07 01:32:36;;;;;;;3.95;2.55;;;;;;;;;;5046859;28;20044;-71
2022/01/07 01:35:05;;;;;;;5.90;2.30;;;;;;;;;;5028823;28;20167;-72
2022/01/07 01:37:31;;;;;;;5.57;2.45;;;;;;;;;;5046914;28;20089;-70
2022/01/07 01:39:59;;;;;;;5.60;2.50;;;;;;;;;;5027782;28;20041;-71
2022/01/07 01:42:25;;;;;;;4.88;2.05;;;;;;;;;;5046267;28;20045;-73
2022/01/07 01:44:52;;;;;;;5.43;2.53;;;;;;;;;;5046890;28;20170;-70
2022/01/07 01:47:18;;;;;;;4.63;2.30;;;;;;;;;;5028137;28;20045;-71
2022/01/07 01:49:44;;;;;;;6.30;2.35;;;;;;;;;;5028382;28;20051;-73
2022/01/07 01:52:10;;;;;;;5.72;2.20;;;;;;;;;;5041460;28;20056;-72
2022/01/07 01:54:37;;;;;;;7.28;2.20;;;;;;;;;;5024093;28;20049;-71
2022/01/07 01:57:03;;;;;;;4.88;2.10;;;;;;;;;;5009173;28;20057;-69
2022/01/07 01:59:30;;;;;;;5.40;2.30;;;;;;;;;;5023649;28;20057;-72
2022/01/07 02:01:57;;;;;;;7.38;2.00;;;;;;;;;;5042656;28;20380;-71
2022/01/07 02:04:23;;;;;;;4.70;2.22;;;;;;;;;;5024822;28;20149;-72
2022/01/07 02:06:50;;;;;;;10.40;2.40;;;;;;;;;;5022927;28;20375;-70
2022/01/07 02:09:19;;;;;;;7.35;3.55;;;;;;;;;;5024520;28;20048;-73
2022/01/07 02:11:45;;;;;;;8.57;2.42;;;;;;;;;;5024073;28;20037;-70
2022/01/07 02:14:12;;;;;;;4.72;2.45;;;;;;;;;;5035250;28;20057;-69
2022/01/07 02:16:38;;;;;;;4.53;2.25;;;;;;;;;;5007484;28;20056;-72
2022/01/07 02:19:05;;;;;;;5.00;2.35;;;;;;;;;;5042229;28;20053;-73
2022/01/07 02:21:36;;;;;;;4.80;2.08;;;;;;;;;;5044094;28;20701;-70
2022/01/07 02:24:05;;;;;;;5.72;2.33;;;;;;;;;;5023300;28;20048;-71
2022/01/07 02:26:35;;;;;;;4.07;1.73;;;;;;;;;;5040714;28;20053;-71
2022/01/07 02:29:02;;;;;;;6.55;2.33;;;;;;;;;;5038677;28;20168;-70
2022/01/07 02:31:29;;;;;;;7.07;2.20;;;;;;;;;;5040036;28;20164;-71
2022/01/07 02:33:55;;;;;;;3.03;1.70;;;;;;;;;;5038672;28;20048;-72
2022/01/07 02:36:21;;;;;;;3.50;1.90;;;;;;;;;;5019455;28;20045;-70
2022/01/07 02:38:48;;;;;;;3.10;1.50;;;;;;;;;;5023586;28;20049;-71
2022/01/07 02:41:15;;;;;;;3.00;1.80;;;;;;;;;;5041413;28;20544;-74
2022/01/07 02:43:41;;;;;;;3.55;1.90;;;;;;;;;;5023577;28;20053;-73
2022/01/07 02:46:08;;;;;;;3.55;1.65;;;;;;;;;;5041044;28;20076;-72
2022/01/07 02:48:34;;;;;;;5.53;1.88;;;;;;;;;;5019756;28;20115;-72
2022/01/07 02:51:00;;;;;;;5.05;1.85;;;;;;;;;;5039309;28;20048;-70
2022/01/07 02:53:26;;;;;;;4.25;2.08;;;;;;;;;;5021347;28;20056;-71
2022/01/07 02:55:53;;;;;;;4.97;1.77;;;;;;;;;;5042919;28;20056;-70
2022/01/07 02:58:19;;;;;;;6.93;2.15;;;;;;;;;;5025974;28;20102;-70
2022/01/07 03:00:45;;;;;;;4.28;2.03;;;;;;;;;;5023281;28;20098;-71
2022/01/07 03:03:11;;;;;;;3.20;1.80;;;;;;;;;;5040829;28;20427;-70
2022/01/07 03:05:41;;;;;;;4.25;2.05;;;;;;;;;;5041442;28;20590;-70
2022/01/07 03:08:09;;;;;;;4.38;2.13;;;;;;;;;;5021765;28;20049;-70
2022/01/07 03:10:35;;;;;;;5.25;2.53;;;;;;;;;;5020909;28;20813;-70
2022/01/07 03:13:03;;;;;;;5.68;2.17;;;;;;;;;;5039947;28;20140;-71
2022/01/07 03:15:31;;;;;;;6.40;2.15;;;;;;;;;;5019382;28;20422;-71
2022/01/07 03:17:57;;;;;;;7.82;2.05;;;;;;;;;;5021997;28;20041;-70
2022/01/07 03:20:24;;;;;;;3.78;1.50;;;;;;;;;;5038793;28;20084;-70
2022/01/07 03:22:51;;;;;;;8.20;2.38;;;;;;;;;;5020947;28;20041;-70
2022/01/07 03:25:17;;;;;;;4.65;2.25;;;;;;;;;;5039719;28;20055;-71
2022/01/07 03:27:44;;;;;;;5.13;2.17;;;;;;;;;;5006605;28;20051;-72
2022/01/07 03:30:13;;;;;;;4.82;1.67;;;;;;;;;;5042967;28;20040;-71
2022/01/07 03:32:39;;;;;;;5.55;2.05;;;;;;;;;;5043671;28;20044;-70
2022/01/07 03:35:10;;;;;;;3.28;1.70;;;;;;;;;;5023036;28;20099;-71
2022/01/07 03:37:39;;;;;;;3.45;1.90;;;;;;;;;;5004447;28;20662;-71
2022/01/07 03:40:06;;;;;;;3.30;1.73;;;;;;;;;;5041083;28;20049;-70
2022/01/07 03:42:32;;;;;;;4.75;2.13;;;;;;;;;;5040854;28;20053;-70
2022/01/07 03:44:59;;;;;;;7.18;1.58;;;;;;;;;;5024367;28;20491;-71
2022/01/07 03:47:26;;;;;;;5.38;1.67;;;;;;;;;;5041215;28;20429;-71
2022/01/07 03:49:52;;;;;;;4.53;1.75;;;;;;;;;;5040175;28;20056;-70
2022/01/07 03:52:18;;;;;;;5.70;2.00;;;;;;;;;;5022305;28;20052;-71
2022/01/07 03:54:45;;;;;;;3.50;1.67;;;;;;;;;;5041388;28;20045;-72
2022/01/07 03:57:11;;;;;;;3.75;1.55;;;;;;;;;;5023599;28;20065;-71
2022/01/07 03:59:37;;;;;;;2.88;1.55;;;;;;;;;;5040665;28;20052;-73
2022/01/07 04:02:04;;;;;;;7.00;1.70;;;;;;;;;;5041837;28;20053;-70
2022/01/07 04:04:31;;;;;;;3.63;1.50;;;;;;;;;;5039411;28;20049;-70
2022/01/07 04:06:57;;;;;;;4.15;2.03;;;;;;;;;;5020489;28;20045;-70
2022/01/07 04:09:23;;;;;;;5.55;1.50;;;;;;;;;;5003460;28;20529;-72
2022/01/07 04:11:50;;;;;;;4.32;1.92;;;;;;;;;;5020541;28;20051;-70
2022/01/07 04:14:16;;;;;;;3.97;1.75;;;;;;;;;;5021872;28;20057;-71
2022/01/07 04:16:42;;;;;;;3.10;1.63;;;;;;;;;;5037140;28;20453;-72
2022/01/07 04:19:08;;;;;;;2.67;1.50;;;;;;;;;;5038806;28;20528;-70
2022/01/07 04:21:35;;;;;;;6.78;1.73;;;;;;;;;;5038373;28;20049;-71
2022/01/07 04:24:02;;;;;;;4.60;1.60;;;;;;;;;;5021364;28;20080;-72
2022/01/07 04:26:28;;;;;;;6.82;1.83;;;;;;;;;;5021064;28;20409;-71
2022/01/07 04:28:55;;;;;;;3.10;1.60;;;;;;;;;;5036930;28;20061;-71
2022/01/07 04:31:21;;;;;;;3.80;1.75;;;;;;;;;;5019341;28;20042;-70
2022/01/07 04:33:48;;;;;;;2.47;1.70;;;;;;;;;;5037324;28;20041;-71
2022/01/07 04:36:14;;;;;;;5.30;1.50;;;;;;;;;;5021549;28;20269;-69
2022/01/07 04:38:41;;;;;;;3.60;1.77;;;;;;;;;;5034319;28;20055;-72
2022/01/07 04:41:07;;;;;;;3.85;1.58;;;;;;;;;;5039169;28;20057;-69
2022/01/07 04:43:33;;;;;;;3.33;1.50;;;;;;;;;;5020062;28;20059;-71
2022/01/07 04:45:59;;;;;;;4.68;1.58;;;;;;;;;;5020653;28;20495;-70
2022/01/07 04:48:25;;;;;;;2.45;1.73;;;;;;;;;;5037698;28;20462;-69
2022/01/07 04:50:52;;;;;;;3.63;1.58;;;;;;;;;;5021313;28;20056;-71
2022/01/07 04:53:18;;;;;;;2.70;1.38;;;;;;;;;;5043111;28;20118;-71
2022/01/07 04:55:44;;;;;;;4.07;1.35;;;;;;;;;;5024012;28;20061;-70
2022/01/07 04:58:13;;;;;;;2.50;1.45;;;;;;;;;;5041061;28;20056;-71
2022/01/07 05:00:41;;;;;;;2.30;1.35;;;;;;;;;;5007466;28;20176;-70
2022/01/07 05:03:08;;;;;;;3.78;1.40;;;;;;;;;;5041318;28;20088;-70
2022/01/07 05:05:35;;;;;;;2.47;1.20;;;;;;;;;;5026940;28;20359;-71
2022/01/07 05:08:03;;;;;;;2.35;1.55;;;;;;;;;;5042529;28;20049;-70
2022/01/07 05:10:29;;;;;;;2.47;1.40;;;;;;;;;;5026192;28;20052;-69
2022/01/07 05:12:56;;;;;;;2.38;1.60;;;;;;;;;;5044313;28;20117;-71
2022/01/07 05:15:23;;;;;;;5.15;1.33;;;;;;;;;;5044057;28;20049;-71
2022/01/07 05:17:49;;;;;;;4.05;1.38;;;;;;;;;;5022472;28;20057;-70
2022/01/07 05:20:16;;;;;;;3.47;1.40;;;;;;;;;;5023867;28;20986;-71
2022/01/07 05:22:43;;;;;;;3.17;1.65;;;;;;;;;;5042176;28;20132;-70
2022/01/07 05:25:11;;;;;;;2.65;1.48;;;;;;;;;;5041558;28;20049;-70
2022/01/07 05:27:38;;;;;;;6.05;1.38;;;;;;;;;;5039685;28;20063;-69
2022/01/07 05:30:06;;;;;;;4.55;1.40;;;;;;;;;;5026140;28;20273;-70
2022/01/07 05:32:33;;;;;;;3.38;1.52;;;;;;;;;;5041823;28;20156;-70
2022/01/07 05:34:59;;;;;;;2.75;1.40;;;;;;;;;;5023244;28;20060;-71
2022/01/07 05:37:25;;;;;;;2.78;1.27;;;;;;;;;;5022526;28;20037;-70
2022/01/07 05:39:51;;;;;;;10.40;1.33;;;;;;;;;;5038720;28;20459;-71
2022/01/07 05:42:18;;;;;;;7.60;1.80;;;;;;;;;;5042997;28;20067;-70
2022/01/07 05:44:44;;;;;;;2.80;1.20;;;;;;;;;;5024588;28;20963;-71
2022/01/07 05:47:10;;;;;;;2.55;1.35;;;;;;;;;;5040150;28;20049;-69
2022/01/07 05:49:37;;;;;;;3.97;1.30;;;;;;;;;;5041315;28;20060;-71
2022/01/07 05:52:04;;;;;;;3.25;1.30;;;;;;;;;;5040144;28;20051;-71
2022/01/07 05:54:30;;;;;;;3.00;1.42;;;;;;;;;;5042613;28;20053;-70
2022/01/07 05:56:57;;;;;;;8.82;1.48;;;;;;;;;;5024523;28;20045;-71
2022/01/07 05:59:23;;;;;;;3.45;1.67;;;;;;;;;;5042522;28;20052;-70
2022/01/07 06:01:49;;;;;;;4.38;1.65;;;;;;;;;;5038103;28;20391;-71
2022/01/07 06:04:16;;;;;;;4.35;1.70;;;;;;;;;;5023041;28;20057;-70
2022/01/07 06:06:42;;;;;;;2.88;1.40;;;;;;;;;;5044198;28;20487;-72
2022/01/07 06:09:08;;;;;;;4.15;1.63;;;;;;;;;;5024615;28;20495;-70
2022/01/07 06:11:35;;;;;;;4.93;1.73;;;;;;;;;;5022046;28;20049;-70
2022/01/07 06:14:01;;;;;;;6.00;1.80;;;;;;;;;;5042212;28;20414;-69
2022/01/07 06:16:27;;;;;;;4.95;1.77;;;;;;;;;;5042053;28;20045;-71
2022/01/07 06:18:59;;;;;;;3.78;1.52;;;;;;;;;;5041531;28;20246;-72
2022/01/07 06:21:26;;;;;;;2.55;1.50;;;;;;;;;;5038693;28;20057;-71
2022/01/07 06:23:53;;;;;;;3.65;1.60;;;;;;;;;;5022423;28;20055;-71
2022/01/07 06:26:19;;;;;;;6.70;1.80;;;;;;;;;;5038582;28;20502;-71
2022/01/07 06:28:46;;;;;;;5.40;1.90;;;;;;;;;;5042414;28;20873;-72
2022/01/07 06:31:12;;;;;;;6.00;1.90;;;;;;;;;;5041620;28;20549;-71
2022/01/07 06:33:39;;;;;;;5.80;1.70;;;;;;;;;;5026170;28;20049;-71
2022/01/07 06:36:05;;;;;;;3.03;1.70;;;;;;;;;;5024179;28;20486;-71
2022/01/07 06:38:31;;;;;;;6.18;1.85;;;;;;;;;;5040422;28;20498;-71
2022/01/07 06:40:58;;;;;;;3.95;1.88;;;;;;;;;;5042198;28;20044;-72
2022/01/07 06:43:24;;;;;;;8.43;1.83;;;;;;;;;;5024992;28;20061;-72
2022/01/07 06:45:50;;;;;;;4.10;1.75;;;;;;;;;;5025362;28;20282;-71
2022/01/07 06:48:18;;;;;;;4.75;2.22;;;;;;;;;;5042241;28;20139;-71
2022/01/07 06:50:45;;;;;;;9.57;2.00;;;;;;;;;;5025898;28;20048;-71
2022/01/07 06:53:12;;;;;;;6.60;2.38;;;;;;;;;;5042086;28;20057;-71
2022/01/07 06:55:38;;;;;;;11.10;2.33;;;;;;;;;;5023996;28;20051;-72
2022/01/07 06:58:05;;;;;;;6.65;2.28;;;;;;;;;;5042218;28;20049;-71
2022/01/07 07:00:31;;;;;;;6.50;2.00;;;;;;;;;;5025802;28;20103;-71
2022/01/07 07:02:57;;;;;;;6.57;2.17;;;;;;;;;;5021648;28;20050;-72
2022/01/07 07:05:24;;;;;;;7.78;2.33;;;;;;;;;;5022771;28;20503;-71
2022/01/07 07:07:51;;;;;;;7.47;2.40;;;;;;;;;;5023525;28;20049;-72
2022/01/07 07:10:17;;;;;;;10.73;2.95;;;;;;;;;;5023759;28;20133;-71
2022/01/07 07:12:43;;;;;;;4.47;2.30;;;;;;;;;;5023313;28;20168;-71
2022/01/07 07:15:09;;;;;;;8.10;3.40;;;;;;;;;;5026001;28;20087;-71
2022/01/07 07:17:35;;;;;;;4.72;2.25;;;;;;;;;;5025628;28;20049;-72
2022/01/07 07:20:03;;;;;;;6.82;2.65;;;;;;;;;;5026917;28;20145;-72
2022/01/07 07:22:30;;;;;;;8.38;2.83;;;;;;;;;;5019466;28;20136;-70
2022/01/07 07:24:56;;;;;;;6.57;2.33;;;;;;;;;;5016365;28;20084;-70
2022/01/07 07:27:23;;;;;;;6.45;2.60;;;;;;;;;;5016491;28;20046;-70
2022/01/07 07:29:49;;;;;;;7.55;2.47;;;;;;;;;;5018713;28;20103;-72
2022/01/07 07:32:21;;;;;;;12.32;3.08;;;;;;;;;;5019486;28;20471;-71
2022/01/07 07:35:00;;;;;;;6.10;2.60;;;;;;;;;;5002389;28;20536;-70
2022/01/07 07:37:27;;;;;;;7.95;2.80;;;;;;;;;;5020105;28;20041;-71
2022/01/07 07:39:53;;;;;;;10.30;2.42;;;;;;;;;;5016959;28;20061;-71
2022/01/07 07:42:20;;;;;;;4.68;2.15;;;;;;;;;;5021042;28;20550;-70
2022/01/07 07:44:47;;;;;;;7.28;2.15;;;;;;;;;;5018690;28;20064;-71
2022/01/07 07:47:13;;;;;;;10.40;2.30;;;;;;;;;;5021620;28;20084;-70
2022/01/07 07:49:40;;;;;;;3.42;2.10;;;;;;;;;;5020352;28;20420;-71
2022/01/07 07:52:06;;;;;;;4.68;2.20;;;;;;;;;;5020921;28;20515;-70
2022/01/07 07:54:33;;;;;;;6.65;2.33;;;;;;;;;;5020222;28;20049;-70
2022/01/07 07:56:59;;;;;;;8.73;2.60;;;;;;;;;;5023558;28;20479;-72
2022/01/07 07:59:26;;;;;;;5.82;2.92;;;;;;;;;;5022364;28;20047;-77
2022/01/07 08:01:53;;;;;;;5.18;2.50;;;;;;;;;;5030215;28;20061;-74
2022/01/07 08:04:21;;;;;;;9.93;2.28;;;;;;;;;;5024196;28;20045;-72
2022/01/07 08:06:49;;;;;;;6.10;2.47;;;;;;;;;;5015349;28;20129;-71
2022/01/07 08:09:15;;;;;;;9.07;3.05;;;;;;;;;;5040484;28;20103;-70
2022/01/07 08:11:52;;;;;;;5.20;2.20;;;;;;;;;;5041242;28;20049;-71
2022/01/07 08:17:06;;;;;;;9.55;2.85;;;;;;;;;;5039265;28;20033;-71
2022/01/07 08:19:34;;;;;;;6.47;3.22;;;;;;;;;;5037658;28;20063;-71
2022/01/07 08:22:00;;;;;;;7.60;3.08;;;;;;;;;;5042032;28;20045;-72
2022/01/07 08:24:26;;;;;;;9.10;3.70;;;;;;;;;;5021626;28;20041;-72
2022/01/07 08:26:53;;;;;;;8.52;3.90;;;;;;;;;;5037225;28;20150;-75
2022/01/07 08:29:24;;;;;;;8.85;4.28;;;;;;;;;;5020158;28;20612;-70
2022/01/07 08:37:02;;;;;;;7.63;3.83;;;;;;;;;;5012325;28;20056;-72
2022/01/07 08:39:28;;;;;;;18.67;4.38;;;;;;;;;;5017265;28;20521;-70
2022/01/07 08:41:55;;;;;;;11.77;4.38;;;;;;;;;;5036970;28;20068;-73
2022/01/07 08:44:23;;;;;;;9.45;4.07;;;;;;;;;;5021246;28;20052;-72
2022/01/07 08:46:51;;;;;;;10.00;4.68;;;;;;;;;;5021939;28;20083;-75
2022/01/07 08:49:17;;;;;;;11.85;4.78;;;;;;;;;;5035389;28;20063;-74
2022/01/07 08:51:44;;;;;;;11.13;4.75;;;;;;;;;;5021980;28;20041;-74
2022/01/07 08:54:10;;;;;;;12.13;4.95;;;;;;;;;;5039339;28;20110;-69
2022/01/07 08:56:37;;;;;;;13.57;4.93;;;;;;;;;;5019696;28;20033;-75
2022/01/07 08:59:03;;;;;;;11.57;4.97;;;;;;;;;;5033476;28;20228;-71
2022/01/07 09:01:29;;;;;;;13.60;5.20;;;;;;;;;;5032947;28;20057;-72
2022/01/07 09:03:59;;;;;;;14.32;4.88;;;;;;;;;;5034771;28;20107;-70
2022/01/07 09:06:26;;;;;;;10.60;4.72;;;;;;;;;;5035812;28;20045;-75
2022/01/07 09:08:53;;;;;;;11.88;5.57;;;;;;;;;;4999907;28;20518;-73
2022/01/07 09:11:19;;;;;;;12.75;4.68;;;;;;;;;;5037562;28;20060;-71
2022/01/07 09:13:48;;;;;;;10.63;3.67;;;;;;;;;;5037144;28;20506;-71
2022/01/07 09:16:15;;;;;;;16.67;4.40;;;;;;;;;;5021498;28;20057;-69
2022/01/07 09:18:41;;;;;;;9.90;3.80;;;;;;;;;;5038381;28;20088;-73
2022/01/07 09:21:07;;;;;;;12.80;4.25;;;;;;;;;;5040901;28;20285;-70
2022/01/07 09:23:34;;;;;;;6.88;3.30;;;;;;;;;;5037977;28;20071;-70
2022/01/07 09:26:00;;;;;;;8.63;3.50;;;;;;;;;;5033630;28;20486;-72
2022/01/07 09:28:26;;;;;;;11.93;3.75;;;;;;;;;;5035048;28;20041;-71
2022/01/07 09:30:52;;;;;;;11.48;3.63;;;;;;;;;;5037828;28;20461;-76
2022/01/07 09:33:18;;;;;;;11.48;3.40;;;;;;;;;;5022146;28;20076;-74
2022/01/07 09:35:44;;;;;;;10.10;3.22;;;;;;;;;;5037879;28;20330;-72
2022/01/07 09:38:11;;;;;;;10.32;3.47;;;;;;;;;;5018968;28;20049;-73
2022/01/07 09:40:37;;;;;;;10.13;3.05;;;;;;;;;;5027992;28;20864;-73
2022/01/07 09:43:06;;;;;;;8.80;3.22;;;;;;;;;;5022232;28;20045;-73
2022/01/07 09:45:36;;;;;;;13.23;3.80;;;;;;;;;;5017802;28;20052;-76
2022/01/07 09:48:04;;;;;;;14.07;5.40;;;;;;;;;;5035490;28;20053;-71
2022/01/07 09:50:31;;;;;;;18.88;7.03;;;;;;;;;;5018144;28;20113;-74
2022/01/07 09:53:07;;;;;;;20.13;7.03;;;;;;;;;;5022576;28;20053;-78
2022/01/07 09:55:34;;;;;;;21.55;7.47;;;;;;;;;;5039106;28;20149;-73
2022/01/07 09:58:02;;;;;;;23.17;8.05;;;;;;;;;;5037460;28;20049;-74
2022/01/07 10:00:38;;;;;;;18.83;7.57;;;;;;;;;;5019522;28;20049;-76
2022/01/07 10:03:07;;;;;;;19.35;7.22;;;;;;;;;;5036477;28;20316;-71
2022/01/07 10:05:43;;;;;;;18.17;6.70;;;;;;;;;;5043072;28;20125;-72
2022/01/07 10:08:29;;;;;;;17.65;6.65;;;;;;;;;;5048349;28;20048;-76
2022/01/07 10:11:21;;;;;;;15.63;5.60;;;;;;;;;;5018063;28;20067;-77
2022/01/07 10:13:50;;;;;;;11.98;5.38;;;;;;;;;;5016720;28;20060;-75
2022/01/07 10:16:21;;;;;;;10.55;4.95;;;;;;;;;;5032195;28;20085;-73
2022/01/07 10:18:48;;;;;;;9.38;4.88;;;;;;;;;;5049189;28;20119;-74
2022/01/07 10:21:16;;;;;;;14.07;4.82;;;;;;;;;;5050669;28;20348;-73
2022/01/07 10:23:44;;;;;;;11.27;4.35;;;;;;;;;;5013125;28;20071;-75
2022/01/07 10:26:16;;;;;;;12.57;4.75;;;;;;;;;;5045233;28;20139;-73
2022/01/07 10:28:45;;;;;;;12.40;4.68;;;;;;;;;;5048748;28;20151;-74
2022/01/07 10:31:20;;;;;;;18.95;4.78;;;;;;;;;;5052725;28;20051;-72
2022/01/07 10:33:49;;;;;;;13.00;4.60;;;;;;;;;;5047481;28;20044;-72
2022/01/07 10:36:18;;;;;;;14.93;4.18;;;;;;;;;;5049723;28;20060;-74
2022/01/07 10:38:59;;;;;;;12.82;4.38;;;;;;;;;;5029612;28;20506;-74
2022/01/07 10:41:26;;;;;;;19.35;4.75;;;;;;;;;;5047622;28;20083;-70
2022/01/07 10:43:52;;;;;;;12.20;4.63;;;;;;;;;;5050283;28;20426;-72
2022/01/07 10:46:24;;;;;;;10.55;4.53;;;;;;;;;;5032471;28;20121;-74
2022/01/07 10:48:59;;;;;;;13.07;4.45;;;;;;;;;;5047146;28;20653;-75
2022/01/07 10:51:28;;;;;;;16.38;4.53;;;;;;;;;;5051277;28;20051;-75
2022/01/07 10:54:05;;;;;;;12.52;4.68;;;;;;;;;;5051320;28;20414;-75
2022/01/07 10:56:44;;;;;;;9.75;4.50;;;;;;;;;;5051408;28;20126;-74
2022/01/07 10:59:13;;;;;;;11.98;4.93;;;;;;;;;;5032068;28;20058;-72
2022/01/07 11:01:46;;;;;;;11.98;5.57;;;;;;;;;;5051567;28;20057;-72
2022/01/07 11:04:15;;;;;;;;;;;;;;;;;;5033191;28;20060;-73
2022/01/07 11:06:42;;;;;;;11.48;4.78;;;;;;;;;;5028674;28;19925;-72
2022/01/07 11:09:10;;;;;;;10.38;4.68;;;;;;;;;;5033261;28;20053;-72
2022/01/07 11:11:47;;;;;;;9.40;4.38;;;;;;;;;;5035033;28;20061;-74
2022/01/07 11:14:24;;;;;;;10.25;4.60;;;;;;;;;;5053016;28;20056;-72
2022/01/07 11:16:51;;;;;;;10.95;4.22;;;;;;;;;;5052797;28;20516;-72
2022/01/07 11:19:24;;;;;;;9.07;4.03;;;;;;;;;;5029158;28;20680;-74
2022/01/07 11:21:53;;;;;;;8.55;3.20;;;;;;;;;;5013808;28;20057;-74
2022/01/07 11:24:47;;;;;;;9.57;2.70;;;;;;;;;;5027375;28;20053;-74
2022/01/07 11:27:20;;;;;;;3.63;1.58;;;;;;;;;;5028720;28;20084;-71
2022/01/07 11:30:12;;;;;;;4.47;2.05;;;;;;;;;;5047353;28;20573;-74
2022/01/07 11:32:48;;;;;;;10.05;4.60;;;;;;;;;;5047700;28;20046;-74
2022/01/07 11:35:18;;;;;;;16.33;5.00;;;;;;;;;;5032660;28;20056;-73
2022/01/07 11:37:56;;;;;;;11.70;5.78;;;;;;;;;;5048966;28;20053;-73
2022/01/07 11:40:28;;;;;;;10.65;5.57;;;;;;;;;;5048157;28;20056;-73
2022/01/07 11:42:56;;;;;;;16.38;6.43;;;;;;;;;;5051716;28;20049;-73
2022/01/07 11:45:29;;;;;;;10.63;4.57;;;;;;;;;;5051948;28;20040;-72
2022/01/07 11:48:12;;;;;;;13.70;4.75;;;;;;;;;;5030810;28;20057;-76
2022/01/07 11:50:58;;;;;;;18.98;5.00;;;;;;;;;;5049834;28;20144;-75
2022/01/07 11:53:28;;;;;;;13.35;5.68;;;;;;;;;;5034120;28;20241;-74
2022/01/07 11:55:59;;;;;;;9.45;5.03;;;;;;;;;;5030575;28;20053;-78
2022/01/07 11:59:02;;;;;;;14.73;5.70;;;;;;;;;;5028452;28;20452;-72
2022/01/07 12:01:37;;;;;;;11.15;4.68;;;;;;;;;;5042427;28;20487;-76
2022/01/07 12:04:26;;;;;;;17.50;5.32;;;;;;;;;;5043512;28;20045;-71
2022/01/07 12:07:01;;;;;;;10.00;4.53;;;;;;;;;;5046969;28;20486;-75
2022/01/07 12:09:32;;;;;;;;;;;;;;;;;;5028346;28;20490;-76
2022/01/07 12:12:02;;;;;;;10.65;4.15;;;;;;;;;;5030075;28;19921;-73
2022/01/07 12:14:41;;;;;;;13.63;4.70;;;;;;;;;;5010554;28;20462;-74
2022/01/07 12:17:13;;;;;;;11.77;5.25;;;;;;;;;;5030807;28;20578;-75
2022/01/07 12:19:40;;;;;;;10.43;4.72;;;;;;;;;;5047021;28;20136;-72
2022/01/07 12:22:10;;;;;;;11.43;5.50;;;;;;;;;;5049881;28;20045;-73
2022/01/07 12:24:37;;;;;;;12.57;5.97;;;;;;;;;;5047430;28;20049;-77
2022/01/07 12:27:30;;;;;;;15.93;6.53;;;;;;;;;;5033219;28;20466;-72
2022/01/07 12:30:00;;;;;;;13.52;6.75;;;;;;;;;;5048248;28;20549;-78
2022/01/07 12:32:35;;;;;;;15.30;6.95;;;;;;;;;;5052385;28;20049;-74
2022/01/07 12:35:04;;;;;;;13.23;6.38;;;;;;;;;;5032551;28;20107;-76
2022/01/07 12:37:31;;;;;;;13.85;5.90;;;;;;;;;;5052245;28;20053;-76
2022/01/07 12:39:59;;;;;;;14.07;5.90;;;;;;;;;;5034166;28;20147;-75
2022/01/07 12:42:30;;;;;;;14.82;5.82;;;;;;;;;;5028353;28;20127;-78
2022/01/07 12:44:58;;;;;;;13.02;5.32;;;;;;;;;;5032758;28;20111;-72
2022/01/07 12:47:30;;;;;;;16.10;4.97;;;;;;;;;;5016188;28;20049;-75
2022/01/07 12:50:00;;;;;;;12.20;5.38;;;;;;;;;;5031486;28;20052;-72
2022/01/07 12:52:32;;;;;;;12.98;4.70;;;;;;;;;;5045477;28;20044;-76
2022/01/07 12:55:23;;;;;;;11.98;5.05;;;;;;;;;;5029627;28;20041;-76
2022/01/07 12:58:04;;;;;;;12.75;5.00;;;;;;;;;;5025901;28;20065;-73
2022/01/07 13:00:33;;;;;;;12.70;5.63;;;;;;;;;;5045188;28;20053;-75
2022/01/07 13:03:06;;;;;;;12.40;4.78;;;;;;;;;;5030939;28;20057;-72
2022/01/07 13:05:38;;;;;;;15.55;5.45;;;;;;;;;;5027969;28;20045;-72
2022/01/07 13:08:11;;;;;;;13.82;6.07;;;;;;;;;;5027523;28;20068;-75
2022/01/07 13:10:40;;;;;;;12.00;5.07;;;;;;;;;;5027999;28;20056;-72
2022/01/07 13:13:14;;;;;;;12.02;5.45;;;;;;;;;;5031701;28;20045;-77
2022/01/07 13:16:00;;;;;;;15.25;6.40;;;;;;;;;;5031099;28;20444;-71
2022/01/07 13:18:44;;;;;;;11.25;4.93;;;;;;;;;;5050824;28;20061;-75
2022/01/07 13:21:15;;;;;;;13.57;5.22;;;;;;;;;;5032998;28;20072;-71
2022/01/07 13:23:44;;;;;;;10.32;5.68;;;;;;;;;;5048918;28;20135;-72
2022/01/07 13:26:11;;;;;;;8.60;4.70;;;;;;;;;;5048201;28;20388;-71
2022/01/07 13:28:37;;;;;;;9.52;5.00;;;;;;;;;;5047458;28;20049;-77
2022/01/07 13:31:06;;;;;;;14.10;5.22;;;;;;;;;;5051015;28;20079;-75
2022/01/07 13:33:33;;;;;;;11.38;5.22;;;;;;;;;;5050642;28;20054;-77
2022/01/07 13:36:04;;;;;;;10.70;4.60;;;;;;;;;;5032875;28;20490;-74
2022/01/07 13:38:31;;;;;;;11.43;4.80;;;;;;;;;;5049227;28;20088;-77
2022/01/07 13:41:05;;;;;;;13.32;5.53;;;;;;;;;;5029670;28;20509;-71
2022/01/07 13:43:32;;;;;;;11.85;5.32;;;;;;;;;;5031923;28;20410;-74
2022/01/07 13:46:19;;;;;;;13.63;5.68;;;;;;;;;;5029986;28;20045;-78
2022/01/07 13:48:56;;;;;;;18.58;6.93;;;;;;;;;;5029185;28;20605;-72
2022/01/07 13:51:28;;;;;;;14.10;6.10;;;;;;;;;;5051670;28;20152;-72
2022/01/07 13:54:16;;;;;;;30.00;11.00;;;;;;;;;;5015535;28;20056;-78
2022/01/07 13:56:55;;;;;;;12.68;5.88;;;;;;;;;;5049014;28;20060;-72
2022/01/07 13:59:21;;;;;;;12.77;6.45;;;;;;;;;;5016616;28;20140;-76
2022/01/07 14:02:01;;;;;;;16.20;7.18;;;;;;;;;;5047829;28;20052;-72
2022/01/07 14:05:19;;;;;;;15.55;6.93;;;;;;;;;;5029547;28;20075;-77
2022/01/07 14:07:50;;;;;;;12.38;6.22;;;;;;;;;;5012480;28;20061;-74
2022/01/07 14:10:27;;;;;;;9.15;5.25;;;;;;;;;;5048188;28;20147;-75
2022/01/07 14:13:00;;;;;;;11.02;5.60;;;;;;;;;;5049221;28;20055;-73
2022/01/07 14:15:27;;;;;;;11.10;5.30;;;;;;;;;;5030666;28;20136;-75
2022/01/07 14:18:18;;;;;;;8.02;4.30;;;;;;;;;;5047478;28;20060;-77
2022/01/07 14:21:03;;;;;;;9.23;4.63;;;;;;;;;;5050094;28;20402;-76
2022/01/07 14:23:31;;;;;;;8.18;4.43;;;;;;;;;;5029085;28;20390;-77
2022/01/07 14:26:10;;;;;;;7.43;4.25;;;;;;;;;;5032437;28;20136;-74
2022/01/07 14:28:39;;;;;;;8.30;3.78;;;;;;;;;;5049005;28;20478;-73
2022/01/07 14:31:07;;;;;;;8.43;4.20;;;;;;;;;;5049439;28;20136;-75
2022/01/07 14:33:34;;;;;;;9.00;3.83;;;;;;;;;;5047046;28;20033;-74
2022/01/07 14:36:01;;;;;;;8.77;4.00;;;;;;;;;;5045525;28;20056;-74
2022/01/07 14:38:27;;;;;;;10.02;3.97;;;;;;;;;;5027802;28;20045;-78
2022/01/07 14:40:55;;;;;;;8.48;4.55;;;;;;;;;;5048319;28;20075;-78
2022/01/07 14:43:22;;;;;;;7.70;3.50;;;;;;;;;;5047837;28;20079;-76
2022/01/07 14:45:48;;;;;;;6.95;3.38;;;;;;;;;;5047023;28;20262;-72
2022/01/07 14:48:14;;;;;;;7.88;3.60;;;;;;;;;;5029584;28;20052;-76
2022/01/07 14:50:40;;;;;;;8.82;3.78;;;;;;;;;;5047891;28;20087;-76
2022/01/07 14:53:07;;;;;;;8.73;4.15;;;;;;;;;;5051839;28;20048;-73
2022/01/07 14:55:36;;;;;;;7.72;3.03;;;;;;;;;;5033050;28;20045;-75
2022/01/07 14:58:05;;;;;;;6.18;2.78;;;;;;;;;;5044387;28;20490;-74